sensor_id;sensor_type;location;lat;lon;timestamp;temperature;humidity
41876;DHT22;27555;50.808;4.402;2022-09-21T00:00:40;11.30;99.90
41876;DHT22;27555;50.808;4.402;2022-09-21T00:03:07;11.30;99.90
41876;DHT22;27555;50.808;4.402;2022-09-21T00:05:34;11.20;99.90
41876;DHT22;27555;50.808;4.402;2022-09-21T00:08:01;11.20;99.90
41876;DHT22;27555;50.808;4.402;2022-09-21T00:10:27;11.20;99.90
41876;DHT22;27555;50.808;4.402;2022-09-21T00:12:53;11.10;99.90
41876;DHT22;27555;50.808;4.402;2022-09-21T00:15:20;11.10;99.90
41876;DHT22;27555;50.808;4.402;2022-09-21T00:17:46;11.10;99.90
41876;DHT22;27555;50.808;4.402;2022-09-21T00:20:13;11.20;99.90
41876;DHT22;27555;50.808;4.402;2022-09-21T00:22:39;11.10;99.90
41876;DHT22;27555;50.808;4.402;2022-09-21T00:25:07;11.10;99.90
41876;DHT22;27555;50.808;4.402;2022-09-21T00:27:33;11.10;99.90
41876;DHT22;27555;50.808;4.402;2022-09-21T00:29:59;11.10;99.90
41876;DHT22;27555;50.808;4.402;2022-09-21T00:32:27;11.00;99.90
41876;DHT22;27555;50.808;4.402;2022-09-21T00:34:57;11.00;99.90
41876;DHT22;27555;50.808;4.402;2022-09-21T00:37:23;11.00;99.90
41876;DHT22;27555;50.808;4.402;2022-09-21T00:39:49;11.00;99.90
41876;DHT22;27555;50.808;4.402;2022-09-21T00:42:30;11.00;99.90
41876;DHT22;27555;50.808;4.402;2022-09-21T00:44:56;11.00;99.90
41876;DHT22;27555;50.808;4.402;2022-09-21T00:47:36;11.00;99.90
41876;DHT22;27555;50.808;4.402;2022-09-21T00:50:06;10.90;99.90
41876;DHT22;27555;50.808;4.402;2022-09-21T00:52:36;10.80;99.90
41876;DHT22;27555;50.808;4.402;2022-09-21T00:55:11;10.80;99.90
41876;DHT22;27555;50.808;4.402;2022-09-21T00:57:39;10.80;99.90
41876;DHT22;27555;50.808;4.402;2022-09-21T01:00:08;10.80;99.90
41876;DHT22;27555;50.808;4.402;2022-09-21T01:02:37;10.80;99.90
41876;DHT22;27555;50.808;4.402;2022-09-21T01:05:07;10.80;99.90
41876;DHT22;27555;50.808;4.402;2022-09-21T01:07:36;10.80;99.90
41876;DHT22;27555;50.808;4.402;2022-09-21T01:10:07;10.80;99.90
41876;DHT22;27555;50.808;4.402;2022-09-21T01:21:24;10.60;99.90
41876;DHT22;27555;50.808;4.402;2022-09-21T01:24:15;10.60;99.90
41876;DHT22;27555;50.808;4.402;2022-09-21T01:31:48;10.60;99.90
41876;DHT22;27555;50.808;4.402;2022-09-21T01:34:37;10.60;99.90
41876;DHT22;27555;50.808;4.402;2022-09-21T01:37:12;10.60;99.90
41876;DHT22;27555;50.808;4.402;2022-09-21T01:39:43;10.60;99.90
41876;DHT22;27555;50.808;4.402;2022-09-21T01:42:11;10.50;99.90
41876;DHT22;27555;50.808;4.402;2022-09-21T01:44:39;10.50;99.90
41876;DHT22;27555;50.808;4.402;2022-09-21T01:47:10;10.50;99.90
41876;DHT22;27555;50.808;4.402;2022-09-21T01:49:49;10.40;99.90
41876;DHT22;27555;50.808;4.402;2022-09-21T01:54:57;10.40;99.90
41876;DHT22;27555;50.808;4.402;2022-09-21T01:57:44;10.40;99.90
41876;DHT22;27555;50.808;4.402;2022-09-21T02:00:12;10.40;99.90
41876;DHT22;27555;50.808;4.402;2022-09-21T02:02:58;10.30;99.90
41876;DHT22;27555;50.808;4.402;2022-09-21T02:05:27;10.30;99.90
41876;DHT22;27555;50.808;4.402;2022-09-21T02:07:55;10.30;99.90
41876;DHT22;27555;50.808;4.402;2022-09-21T02:10:27;10.30;99.90
41876;DHT22;27555;50.808;4.402;2022-09-21T02:12:57;10.30;99.90
41876;DHT22;27555;50.808;4.402;2022-09-21T02:15:26;10.40;99.90
41876;DHT22;27555;50.808;4.402;2022-09-21T02:20:59;10.40;99.90
41876;DHT22;27555;50.808;4.402;2022-09-21T02:24:07;10.30;99.90
41876;DHT22;27555;50.808;4.402;2022-09-21T02:26:45;10.30;99.90
41876;DHT22;27555;50.808;4.402;2022-09-21T02:29:19;10.30;99.90
41876;DHT22;27555;50.808;4.402;2022-09-21T02:31:51;10.30;99.90
41876;DHT22;27555;50.808;4.402;2022-09-21T02:34:31;10.20;99.90
41876;DHT22;27555;50.808;4.402;2022-09-21T02:37:09;10.20;99.90
41876;DHT22;27555;50.808;4.402;2022-09-21T02:40:05;10.10;99.90
41876;DHT22;27555;50.808;4.402;2022-09-21T02:42:35;10.10;99.90
41876;DHT22;27555;50.808;4.402;2022-09-21T02:45:23;10.20;99.90
41876;DHT22;27555;50.808;4.402;2022-09-21T02:47:58;10.10;99.90
41876;DHT22;27555;50.808;4.402;2022-09-21T02:50:44;10.10;99.90
41876;DHT22;27555;50.808;4.402;2022-09-21T02:53:12;10.20;99.90
41876;DHT22;27555;50.808;4.402;2022-09-21T02:55:40;10.10;99.90
41876;DHT22;27555;50.808;4.402;2022-09-21T02:58:09;10.10;99.90
41876;DHT22;27555;50.808;4.402;2022-09-21T03:00:36;10.10;99.90
41876;DHT22;27555;50.808;4.402;2022-09-21T03:03:17;10.20;99.90
41876;DHT22;27555;50.808;4.402;2022-09-21T03:05:45;10.10;99.90
41876;DHT22;27555;50.808;4.402;2022-09-21T03:08:13;10.10;99.90
41876;DHT22;27555;50.808;4.402;2022-09-21T03:10:39;10.10;99.90
41876;DHT22;27555;50.808;4.402;2022-09-21T03:13:06;10.10;99.90
41876;DHT22;27555;50.808;4.402;2022-09-21T03:15:40;10.10;99.90
41876;DHT22;27555;50.808;4.402;2022-09-21T03:18:07;10.10;99.90
41876;DHT22;27555;50.808;4.402;2022-09-21T03:20:38;10.20;99.90
41876;DHT22;27555;50.808;4.402;2022-09-21T03:23:04;10.00;99.90
41876;DHT22;27555;50.808;4.402;2022-09-21T03:25:30;10.00;99.90
41876;DHT22;27555;50.808;4.402;2022-09-21T03:27:56;10.10;99.90
41876;DHT22;27555;50.808;4.402;2022-09-21T03:30:23;10.10;99.90
41876;DHT22;27555;50.808;4.402;2022-09-21T03:32:50;10.10;99.90
41876;DHT22;27555;50.808;4.402;2022-09-21T03:35:17;10.00;99.90
41876;DHT22;27555;50.808;4.402;2022-09-21T03:37:43;10.00;99.90
41876;DHT22;27555;50.808;4.402;2022-09-21T03:40:10;10.00;99.90
41876;DHT22;27555;50.808;4.402;2022-09-21T03:42:37;9.90;99.90
41876;DHT22;27555;50.808;4.402;2022-09-21T03:45:03;10.00;99.90
41876;DHT22;27555;50.808;4.402;2022-09-21T03:47:29;10.00;99.90
41876;DHT22;27555;50.808;4.402;2022-09-21T03:49:55;9.90;99.90
41876;DHT22;27555;50.808;4.402;2022-09-21T03:52:20;9.90;99.90
41876;DHT22;27555;50.808;4.402;2022-09-21T03:54:46;9.90;99.90
41876;DHT22;27555;50.808;4.402;2022-09-21T03:57:12;9.90;99.90
41876;DHT22;27555;50.808;4.402;2022-09-21T03:59:37;9.90;99.90
41876;DHT22;27555;50.808;4.402;2022-09-21T04:02:03;9.90;99.90
41876;DHT22;27555;50.808;4.402;2022-09-21T04:04:28;9.90;99.90
41876;DHT22;27555;50.808;4.402;2022-09-21T04:06:54;9.90;99.90
41876;DHT22;27555;50.808;4.402;2022-09-21T04:09:20;9.80;99.90
41876;DHT22;27555;50.808;4.402;2022-09-21T04:11:45;9.80;99.90
41876;DHT22;27555;50.808;4.402;2022-09-21T04:14:12;9.80;99.90
41876;DHT22;27555;50.808;4.402;2022-09-21T04:16:38;9.80;99.90
41876;DHT22;27555;50.808;4.402;2022-09-21T04:19:03;9.80;99.90
41876;DHT22;27555;50.808;4.402;2022-09-21T04:21:29;9.80;99.90
41876;DHT22;27555;50.808;4.402;2022-09-21T04:23:55;9.80;99.90
41876;DHT22;27555;50.808;4.402;2022-09-21T04:26:26;9.80;99.90
41876;DHT22;27555;50.808;4.402;2022-09-21T04:28:53;9.80;99.90
41876;DHT22;27555;50.808;4.402;2022-09-21T04:31:20;9.70;99.90
41876;DHT22;27555;50.808;4.402;2022-09-21T04:33:51;9.60;99.90
41876;DHT22;27555;50.808;4.402;2022-09-21T04:36:17;9.70;99.90
41876;DHT22;27555;50.808;4.402;2022-09-21T04:38:44;9.80;99.90
41876;DHT22;27555;50.808;4.402;2022-09-21T04:41:11;9.80;99.90
41876;DHT22;27555;50.808;4.402;2022-09-21T04:43:37;9.70;99.90
41876;DHT22;27555;50.808;4.402;2022-09-21T04:46:08;9.70;99.90
41876;DHT22;27555;50.808;4.402;2022-09-21T04:48:34;9.80;99.90
41876;DHT22;27555;50.808;4.402;2022-09-21T04:51:01;9.70;99.90
41876;DHT22;27555;50.808;4.402;2022-09-21T04:53:28;9.70;99.90
41876;DHT22;27555;50.808;4.402;2022-09-21T04:55:54;9.70;99.90
41876;DHT22;27555;50.808;4.402;2022-09-21T04:58:23;9.60;99.90
41876;DHT22;27555;50.808;4.402;2022-09-21T05:00:52;9.60;99.90
41876;DHT22;27555;50.808;4.402;2022-09-21T05:03:19;9.60;99.90
41876;DHT22;27555;50.808;4.402;2022-09-21T05:05:49;9.50;99.90
41876;DHT22;27555;50.808;4.402;2022-09-21T05:08:15;9.50;99.90
41876;DHT22;27555;50.808;4.402;2022-09-21T05:10:42;9.50;99.90
41876;DHT22;27555;50.808;4.402;2022-09-21T05:13:08;9.50;99.90
41876;DHT22;27555;50.808;4.402;2022-09-21T05:15:36;9.60;99.90
41876;DHT22;27555;50.808;4.402;2022-09-21T05:18:01;9.60;99.90
41876;DHT22;27555;50.808;4.402;2022-09-21T05:20:27;9.70;99.90
41876;DHT22;27555;50.808;4.402;2022-09-21T05:22:53;9.60;99.90
41876;DHT22;27555;50.808;4.402;2022-09-21T05:25:18;9.60;99.90
41876;DHT22;27555;50.808;4.402;2022-09-21T05:27:44;9.70;99.90
41876;DHT22;27555;50.808;4.402;2022-09-21T05:30:10;9.70;99.90
41876;DHT22;27555;50.808;4.402;2022-09-21T05:32:44;9.70;99.90
41876;DHT22;27555;50.808;4.402;2022-09-21T05:35:28;9.70;99.90
41876;DHT22;27555;50.808;4.402;2022-09-21T05:37:59;9.70;99.90
41876;DHT22;27555;50.808;4.402;2022-09-21T05:40:26;9.70;99.90
41876;DHT22;27555;50.808;4.402;2022-09-21T05:42:52;9.70;99.90
41876;DHT22;27555;50.808;4.402;2022-09-21T05:45:18;9.70;99.90
41876;DHT22;27555;50.808;4.402;2022-09-21T05:50:27;9.80;99.90
41876;DHT22;27555;50.808;4.402;2022-09-21T05:53:01;9.80;99.90
41876;DHT22;27555;50.808;4.402;2022-09-21T05:55:50;9.90;99.90
41876;DHT22;27555;50.808;4.402;2022-09-21T06:03:36;10.00;99.90
41876;DHT22;27555;50.808;4.402;2022-09-21T06:06:02;10.00;99.90
41876;DHT22;27555;50.808;4.402;2022-09-21T06:08:28;10.10;99.90
41876;DHT22;27555;50.808;4.402;2022-09-21T06:10:54;10.20;99.90
41876;DHT22;27555;50.808;4.402;2022-09-21T06:13:20;10.30;99.90
41876;DHT22;27555;50.808;4.402;2022-09-21T06:15:45;10.30;99.90
41876;DHT22;27555;50.808;4.402;2022-09-21T06:18:11;10.30;99.90
41876;DHT22;27555;50.808;4.402;2022-09-21T06:20:36;10.30;99.90
41876;DHT22;27555;50.808;4.402;2022-09-21T06:23:08;10.50;99.90
41876;DHT22;27555;50.808;4.402;2022-09-21T06:25:34;10.60;99.90
41876;DHT22;27555;50.808;4.402;2022-09-21T06:28:04;10.60;99.90
41876;DHT22;27555;50.808;4.402;2022-09-21T06:30:31;10.60;99.90
41876;DHT22;27555;50.808;4.402;2022-09-21T06:32:59;10.70;99.90
41876;DHT22;27555;50.808;4.402;2022-09-21T06:35:26;10.70;99.90
41876;DHT22;27555;50.808;4.402;2022-09-21T06:37:56;10.70;99.90
41876;DHT22;27555;50.808;4.402;2022-09-21T06:40:22;10.70;99.90
41876;DHT22;27555;50.808;4.402;2022-09-21T06:42:48;10.80;99.90
41876;DHT22;27555;50.808;4.402;2022-09-21T06:45:14;10.90;99.90
41876;DHT22;27555;50.808;4.402;2022-09-21T06:47:46;11.10;99.90
41876;DHT22;27555;50.808;4.402;2022-09-21T06:50:12;11.10;99.90
41876;DHT22;27555;50.808;4.402;2022-09-21T06:52:38;11.20;99.90
41876;DHT22;27555;50.808;4.402;2022-09-21T06:55:05;11.30;99.90
41876;DHT22;27555;50.808;4.402;2022-09-21T06:57:31;11.40;99.90
41876;DHT22;27555;50.808;4.402;2022-09-21T06:59:56;11.50;99.90
41876;DHT22;27555;50.808;4.402;2022-09-21T07:02:22;11.60;99.90
41876;DHT22;27555;50.808;4.402;2022-09-21T07:04:47;11.90;99.90
41876;DHT22;27555;50.808;4.402;2022-09-21T07:07:13;12.10;99.90
41876;DHT22;27555;50.808;4.402;2022-09-21T07:09:39;12.30;99.90
41876;DHT22;27555;50.808;4.402;2022-09-21T07:12:05;12.90;99.90
41876;DHT22;27555;50.808;4.402;2022-09-21T07:14:32;13.70;99.90
41876;DHT22;27555;50.808;4.402;2022-09-21T07:16:58;14.50;99.90
41876;DHT22;27555;50.808;4.402;2022-09-21T07:19:24;15.40;99.90
41876;DHT22;27555;50.808;4.402;2022-09-21T07:21:52;16.30;99.90
41876;DHT22;27555;50.808;4.402;2022-09-21T07:24:18;17.10;99.90
41876;DHT22;27555;50.808;4.402;2022-09-21T07:26:43;17.80;99.90
41876;DHT22;27555;50.808;4.402;2022-09-21T07:29:09;18.20;99.90
41876;DHT22;27555;50.808;4.402;2022-09-21T07:31:35;18.10;99.90
41876;DHT22;27555;50.808;4.402;2022-09-21T07:34:01;18.40;99.90
41876;DHT22;27555;50.808;4.402;2022-09-21T07:36:26;19.20;99.90
41876;DHT22;27555;50.808;4.402;2022-09-21T07:38:52;19.80;99.90
41876;DHT22;27555;50.808;4.402;2022-09-21T07:41:18;20.00;99.90
41876;DHT22;27555;50.808;4.402;2022-09-21T07:43:44;20.10;99.50
41876;DHT22;27555;50.808;4.402;2022-09-21T07:46:12;20.30;99.40
41876;DHT22;27555;50.808;4.402;2022-09-21T07:48:39;20.80;98.90
41876;DHT22;27555;50.808;4.402;2022-09-21T07:51:07;21.40;98.00
41876;DHT22;27555;50.808;4.402;2022-09-21T07:53:35;21.80;97.40
41876;DHT22;27555;50.808;4.402;2022-09-21T07:56:05;22.30;96.70
41876;DHT22;27555;50.808;4.402;2022-09-21T07:58:31;22.70;96.00
41876;DHT22;27555;50.808;4.402;2022-09-21T08:01:16;23.20;95.50
41876;DHT22;27555;50.808;4.402;2022-09-21T08:03:42;24.10;94.70
41876;DHT22;27555;50.808;4.402;2022-09-21T08:06:08;24.70;93.80
41876;DHT22;27555;50.808;4.402;2022-09-21T08:08:34;25.30;93.10
41876;DHT22;27555;50.808;4.402;2022-09-21T08:11:05;25.40;92.20
41876;DHT22;27555;50.808;4.402;2022-09-21T08:13:30;25.00;92.30
41876;DHT22;27555;50.808;4.402;2022-09-21T08:16:00;25.10;91.90
41876;DHT22;27555;50.808;4.402;2022-09-21T08:18:26;25.10;92.10
41876;DHT22;27555;50.808;4.402;2022-09-21T08:20:56;25.60;91.90
41876;DHT22;27555;50.808;4.402;2022-09-21T08:23:22;26.10;91.20
41876;DHT22;27555;50.808;4.402;2022-09-21T08:25:48;26.10;91.00
41876;DHT22;27555;50.808;4.402;2022-09-21T08:28:13;26.40;90.70
41876;DHT22;27555;50.808;4.402;2022-09-21T08:30:40;26.80;90.10
41876;DHT22;27555;50.808;4.402;2022-09-21T08:33:07;27.30;89.70
41876;DHT22;27555;50.808;4.402;2022-09-21T08:35:33;27.90;89.00
41876;DHT22;27555;50.808;4.402;2022-09-21T08:38:00;28.10;87.40
41876;DHT22;27555;50.808;4.402;2022-09-21T08:40:25;28.20;86.80
41876;DHT22;27555;50.808;4.402;2022-09-21T08:43:07;28.30;85.70
41876;DHT22;27555;50.808;4.402;2022-09-21T08:45:39;28.30;84.30
41876;DHT22;27555;50.808;4.402;2022-09-21T08:48:17;27.90;85.40
41876;DHT22;27555;50.808;4.402;2022-09-21T08:50:50;27.60;84.30
41876;DHT22;27555;50.808;4.402;2022-09-21T08:53:21;27.60;84.60
41876;DHT22;27555;50.808;4.402;2022-09-21T08:55:48;27.40;84.70
41876;DHT22;27555;50.808;4.402;2022-09-21T08:58:23;27.50;84.40
41876;DHT22;27555;50.808;4.402;2022-09-21T09:01:42;28.00;83.00
41876;DHT22;27555;50.808;4.402;2022-09-21T09:04:10;28.20;83.00
41876;DHT22;27555;50.808;4.402;2022-09-21T09:06:43;28.00;83.30
41876;DHT22;27555;50.808;4.402;2022-09-21T09:15:32;28.00;82.50
41876;DHT22;27555;50.808;4.402;2022-09-21T09:18:22;28.40;81.40
41876;DHT22;27555;50.808;4.402;2022-09-21T09:20:56;28.30;80.40
41876;DHT22;27555;50.808;4.402;2022-09-21T09:23:25;28.70;79.90
41876;DHT22;27555;50.808;4.402;2022-09-21T09:26:19;29.00;78.70
41876;DHT22;27555;50.808;4.402;2022-09-21T09:29:00;29.50;77.70
41876;DHT22;27555;50.808;4.402;2022-09-21T09:31:27;29.40;77.50
41876;DHT22;27555;50.808;4.402;2022-09-21T09:34:23;29.10;77.90
41876;DHT22;27555;50.808;4.402;2022-09-21T09:36:57;29.30;76.90
41876;DHT22;27555;50.808;4.402;2022-09-21T09:39:23;29.30;76.20
41876;DHT22;27555;50.808;4.402;2022-09-21T09:50:26;28.70;76.60
41876;DHT22;27555;50.808;4.402;2022-09-21T09:53:16;28.10;76.80
41876;DHT22;27555;50.808;4.402;2022-09-21T09:55:46;28.10;75.80
41876;DHT22;27555;50.808;4.402;2022-09-21T09:58:20;28.20;76.20
41876;DHT22;27555;50.808;4.402;2022-09-21T10:00:52;28.60;75.50
41876;DHT22;27555;50.808;4.402;2022-09-21T10:03:26;29.10;75.10
41876;DHT22;27555;50.808;4.402;2022-09-21T10:05:52;29.50;73.50
41876;DHT22;27555;50.808;4.402;2022-09-21T10:11:10;27.70;75.90
41876;DHT22;27555;50.808;4.402;2022-09-21T10:13:41;26.30;77.20
41876;DHT22;27555;50.808;4.402;2022-09-21T10:18:46;26.30;78.40
41876;DHT22;27555;50.808;4.402;2022-09-21T10:23:52;28.40;74.90
41876;DHT22;27555;50.808;4.402;2022-09-21T10:26:21;29.00;74.00
41876;DHT22;27555;50.808;4.402;2022-09-21T10:29:26;28.30;74.00
41876;DHT22;27555;50.808;4.402;2022-09-21T10:34:22;27.80;73.80
41876;DHT22;27555;50.808;4.402;2022-09-21T10:36:56;27.30;73.90
41876;DHT22;27555;50.808;4.402;2022-09-21T10:39:28;26.80;74.90
41876;DHT22;27555;50.808;4.402;2022-09-21T10:42:09;26.90;73.80
41876;DHT22;27555;50.808;4.402;2022-09-21T10:49:52;28.30;73.10
41876;DHT22;27555;50.808;4.402;2022-09-21T10:52:21;29.40;72.90
41876;DHT22;27555;50.808;4.402;2022-09-21T10:54:50;29.70;71.10
41876;DHT22;27555;50.808;4.402;2022-09-21T10:57:19;30.00;70.80
41876;DHT22;27555;50.808;4.402;2022-09-21T10:59:46;30.50;70.50
41876;DHT22;27555;50.808;4.402;2022-09-21T11:02:35;30.30;70.00
41876;DHT22;27555;50.808;4.402;2022-09-21T11:05:35;30.20;69.20
41876;DHT22;27555;50.808;4.402;2022-09-21T11:08:16;29.70;69.40
41876;DHT22;27555;50.808;4.402;2022-09-21T11:13:38;29.40;70.50
41876;DHT22;27555;50.808;4.402;2022-09-21T11:16:21;29.50;69.60
41876;DHT22;27555;50.808;4.402;2022-09-21T11:19:12;28.80;69.30
41876;DHT22;27555;50.808;4.402;2022-09-21T11:21:47;27.70;70.30
41876;DHT22;27555;50.808;4.402;2022-09-21T11:24:56;26.60;71.10
41876;DHT22;27555;50.808;4.402;2022-09-21T11:27:38;25.40;73.30
41876;DHT22;27555;50.808;4.402;2022-09-21T11:30:12;24.60;73.70
41876;DHT22;27555;50.808;4.402;2022-09-21T11:41:12;23.20;76.30
41876;DHT22;27555;50.808;4.402;2022-09-21T11:44:08;23.00;76.10
41876;DHT22;27555;50.808;4.402;2022-09-21T11:50:04;23.30;75.40
41876;DHT22;27555;50.808;4.402;2022-09-21T11:55:56;22.10;76.40
41876;DHT22;27555;50.808;4.402;2022-09-21T12:01:24;22.30;77.10
41876;DHT22;27555;50.808;4.402;2022-09-21T12:18:47;28.00;68.20
41876;DHT22;27555;50.808;4.402;2022-09-21T12:21:25;28.20;67.50
41876;DHT22;27555;50.808;4.402;2022-09-21T12:24:19;28.50;66.60
41876;DHT22;27555;50.808;4.402;2022-09-21T12:27:05;28.10;67.40
41876;DHT22;27555;50.808;4.402;2022-09-21T12:29:35;27.50;68.00
41876;DHT22;27555;50.808;4.402;2022-09-21T12:35:13;26.40;67.90
41876;DHT22;27555;50.808;4.402;2022-09-21T12:38:10;25.40;68.60
41876;DHT22;27555;50.808;4.402;2022-09-21T12:40:46;24.30;71.10
41876;DHT22;27555;50.808;4.402;2022-09-21T12:43:36;23.20;73.00
41876;DHT22;27555;50.808;4.402;2022-09-21T12:49:00;22.00;75.20
41876;DHT22;27555;50.808;4.402;2022-09-21T12:51:36;21.60;76.60
41876;DHT22;27555;50.808;4.402;2022-09-21T12:54:22;21.10;76.70
41876;DHT22;27555;50.808;4.402;2022-09-21T13:00:09;20.90;76.90
41876;DHT22;27555;50.808;4.402;2022-09-21T13:03:07;20.90;76.30
41876;DHT22;27555;50.808;4.402;2022-09-21T13:10:54;20.10;78.40
41876;DHT22;27555;50.808;4.402;2022-09-21T13:13:36;20.00;78.60
41876;DHT22;27555;50.808;4.402;2022-09-21T13:16:08;20.20;79.00
41876;DHT22;27555;50.808;4.402;2022-09-21T13:18:57;20.30;77.60
41876;DHT22;27555;50.808;4.402;2022-09-21T13:21:30;20.40;77.80
41876;DHT22;27555;50.808;4.402;2022-09-21T13:23:58;20.50;78.00
41876;DHT22;27555;50.808;4.402;2022-09-21T13:26:57;20.10;78.70
41876;DHT22;27555;50.808;4.402;2022-09-21T13:29:36;20.30;77.70
41876;DHT22;27555;50.808;4.402;2022-09-21T13:34:44;19.90;79.30
41876;DHT22;27555;50.808;4.402;2022-09-21T13:45:00;20.50;81.70
41876;DHT22;27555;50.808;4.402;2022-09-21T13:47:36;20.40;82.10
41876;DHT22;27555;50.808;4.402;2022-09-21T13:52:42;20.20;82.30
41876;DHT22;27555;50.808;4.402;2022-09-21T13:55:34;20.20;82.70
41876;DHT22;27555;50.808;4.402;2022-09-21T13:58:25;20.10;83.30
41876;DHT22;27555;50.808;4.402;2022-09-21T14:00:53;20.00;84.20
41876;DHT22;27555;50.808;4.402;2022-09-21T14:03:21;19.90;84.10
41876;DHT22;27555;50.808;4.402;2022-09-21T14:06:00;19.90;84.80
41876;DHT22;27555;50.808;4.402;2022-09-21T14:08:34;19.90;84.70
41876;DHT22;27555;50.808;4.402;2022-09-21T14:11:04;19.90;84.70
41876;DHT22;27555;50.808;4.402;2022-09-21T14:13:42;19.80;86.00
41876;DHT22;27555;50.808;4.402;2022-09-21T14:18:54;19.60;86.20
41876;DHT22;27555;50.808;4.402;2022-09-21T14:21:21;19.70;84.40
41876;DHT22;27555;50.808;4.402;2022-09-21T14:26:35;19.50;84.40
41876;DHT22;27555;50.808;4.402;2022-09-21T14:29:30;19.40;85.30
41876;DHT22;27555;50.808;4.402;2022-09-21T14:32:00;19.40;85.30
41876;DHT22;27555;50.808;4.402;2022-09-21T14:34:31;19.30;84.50
41876;DHT22;27555;50.808;4.402;2022-09-21T14:37:03;19.10;84.70
41876;DHT22;27555;50.808;4.402;2022-09-21T14:39:38;19.10;85.00
41876;DHT22;27555;50.808;4.402;2022-09-21T14:42:17;18.80;85.40
41876;DHT22;27555;50.808;4.402;2022-09-21T14:44:45;18.90;86.20
41876;DHT22;27555;50.808;4.402;2022-09-21T14:50:32;18.90;85.60
41876;DHT22;27555;50.808;4.402;2022-09-21T14:56:20;18.80;83.70
41876;DHT22;27555;50.808;4.402;2022-09-21T14:59:05;18.90;83.20
41876;DHT22;27555;50.808;4.402;2022-09-21T15:01:40;19.00;83.00
41876;DHT22;27555;50.808;4.402;2022-09-21T15:04:39;19.30;81.60
41876;DHT22;27555;50.808;4.402;2022-09-21T15:07:20;19.30;82.10
41876;DHT22;27555;50.808;4.402;2022-09-21T15:10:18;19.40;80.60
41876;DHT22;27555;50.808;4.402;2022-09-21T15:18:28;19.50;79.70
41876;DHT22;27555;50.808;4.402;2022-09-21T15:20:59;19.40;80.30
41876;DHT22;27555;50.808;4.402;2022-09-21T15:23:47;19.10;80.20
41876;DHT22;27555;50.808;4.402;2022-09-21T15:26:27;19.30;80.40
41876;DHT22;27555;50.808;4.402;2022-09-21T15:29:02;19.60;80.40
41876;DHT22;27555;50.808;4.402;2022-09-21T15:31:36;19.90;79.60
41876;DHT22;27555;50.808;4.402;2022-09-21T15:34:04;20.10;79.50
41876;DHT22;27555;50.808;4.402;2022-09-21T15:36:37;20.40;79.40
41876;DHT22;27555;50.808;4.402;2022-09-21T15:39:04;20.50;78.70
41876;DHT22;27555;50.808;4.402;2022-09-21T15:44:06;19.90;80.70
41876;DHT22;27555;50.808;4.402;2022-09-21T15:46:36;20.00;80.20
41876;DHT22;27555;50.808;4.402;2022-09-21T15:49:01;19.60;79.30
41876;DHT22;27555;50.808;4.402;2022-09-21T15:51:31;19.40;80.40
41876;DHT22;27555;50.808;4.402;2022-09-21T15:54:24;19.20;80.90
41876;DHT22;27555;50.808;4.402;2022-09-21T15:56:52;19.10;80.40
41876;DHT22;27555;50.808;4.402;2022-09-21T15:59:19;19.20;80.30
41876;DHT22;27555;50.808;4.402;2022-09-21T16:01:47;19.10;80.80
41876;DHT22;27555;50.808;4.402;2022-09-21T16:04:19;19.10;80.90
41876;DHT22;27555;50.808;4.402;2022-09-21T16:07:03;18.90;81.40
41876;DHT22;27555;50.808;4.402;2022-09-21T16:09:42;18.90;81.00
41876;DHT22;27555;50.808;4.402;2022-09-21T16:14:50;18.90;81.20
41876;DHT22;27555;50.808;4.402;2022-09-21T16:17:25;18.80;81.70
41876;DHT22;27555;50.808;4.402;2022-09-21T16:22:29;18.80;82.50
41876;DHT22;27555;50.808;4.402;2022-09-21T16:24:59;18.80;81.70
41876;DHT22;27555;50.808;4.402;2022-09-21T16:27:30;18.80;82.30
41876;DHT22;27555;50.808;4.402;2022-09-21T16:29:57;18.70;84.80
41876;DHT22;27555;50.808;4.402;2022-09-21T16:32:34;18.60;85.50
41876;DHT22;27555;50.808;4.402;2022-09-21T16:35:25;18.60;85.30
41876;DHT22;27555;50.808;4.402;2022-09-21T16:37:58;18.50;85.80
41876;DHT22;27555;50.808;4.402;2022-09-21T16:40:25;18.50;86.50
41876;DHT22;27555;50.808;4.402;2022-09-21T16:42:51;18.50;86.60
41876;DHT22;27555;50.808;4.402;2022-09-21T16:45:26;18.50;87.00
41876;DHT22;27555;50.808;4.402;2022-09-21T16:47:52;18.50;87.80
41876;DHT22;27555;50.808;4.402;2022-09-21T16:50:18;18.40;87.30
41876;DHT22;27555;50.808;4.402;2022-09-21T16:52:44;18.40;87.80
41876;DHT22;27555;50.808;4.402;2022-09-21T16:55:13;18.30;87.80
41876;DHT22;27555;50.808;4.402;2022-09-21T16:57:40;18.20;88.50
41876;DHT22;27555;50.808;4.402;2022-09-21T17:00:11;18.20;89.30
41876;DHT22;27555;50.808;4.402;2022-09-21T17:02:37;18.10;90.30
41876;DHT22;27555;50.808;4.402;2022-09-21T17:05:10;18.10;90.90
41876;DHT22;27555;50.808;4.402;2022-09-21T17:07:37;18.00;91.10
41876;DHT22;27555;50.808;4.402;2022-09-21T17:10:13;17.90;91.30
41876;DHT22;27555;50.808;4.402;2022-09-21T17:12:40;17.80;91.70
41876;DHT22;27555;50.808;4.402;2022-09-21T17:15:07;17.70;92.00
41876;DHT22;27555;50.808;4.402;2022-09-21T17:17:34;17.50;92.30
41876;DHT22;27555;50.808;4.402;2022-09-21T17:20:05;17.40;92.30
41876;DHT22;27555;50.808;4.402;2022-09-21T17:22:37;17.40;92.70
41876;DHT22;27555;50.808;4.402;2022-09-21T17:25:03;17.20;93.10
41876;DHT22;27555;50.808;4.402;2022-09-21T17:27:29;17.10;93.50
41876;DHT22;27555;50.808;4.402;2022-09-21T17:29:54;17.10;93.90
41876;DHT22;27555;50.808;4.402;2022-09-21T17:32:22;17.00;94.20
41876;DHT22;27555;50.808;4.402;2022-09-21T17:35:08;17.00;94.40
41876;DHT22;27555;50.808;4.402;2022-09-21T17:37:37;16.80;94.70
41876;DHT22;27555;50.808;4.402;2022-09-21T17:40:04;16.80;94.90
41876;DHT22;27555;50.808;4.402;2022-09-21T17:42:31;16.70;95.10
41876;DHT22;27555;50.808;4.402;2022-09-21T17:47:40;16.60;95.80
41876;DHT22;27555;50.808;4.402;2022-09-21T17:52:39;16.40;96.50
41876;DHT22;27555;50.808;4.402;2022-09-21T17:55:23;16.20;96.90
41876;DHT22;27555;50.808;4.402;2022-09-21T18:01:01;16.10;97.30
41876;DHT22;27555;50.808;4.402;2022-09-21T18:05:40;16.10;97.60
41876;DHT22;27555;50.808;4.402;2022-09-21T18:08:17;15.90;98.10
41876;DHT22;27555;50.808;4.402;2022-09-21T18:10:51;15.80;98.60
41876;DHT22;27555;50.808;4.402;2022-09-21T18:19:26;15.50;99.50
41876;DHT22;27555;50.808;4.402;2022-09-21T18:22:13;15.50;99.80
41876;DHT22;27555;50.808;4.402;2022-09-21T18:24:40;15.40;99.90
41876;DHT22;27555;50.808;4.402;2022-09-21T18:27:08;15.40;99.90
41876;DHT22;27555;50.808;4.402;2022-09-21T18:29:36;15.40;99.90
41876;DHT22;27555;50.808;4.402;2022-09-21T18:32:26;15.40;99.90
41876;DHT22;27555;50.808;4.402;2022-09-21T18:40:30;15.20;99.90
41876;DHT22;27555;50.808;4.402;2022-09-21T18:43:43;15.20;99.90
41876;DHT22;27555;50.808;4.402;2022-09-21T18:46:27;15.10;99.90
41876;DHT22;27555;50.808;4.402;2022-09-21T18:49:27;15.10;99.90
41876;DHT22;27555;50.808;4.402;2022-09-21T18:54:29;14.90;99.90